Terminal Aerodrome Forecast
Issued by NWS

Home | Current Version | Previous Version | Graphics & Text | Print | Product List | Glossary Off
Versions: 1 2 3 4 5 6 7 8 9 10 11 12 13 14 15 16 17 18 19

000
FTUS41 KCLE 280500
TAFFDY
TAF
KFDY 280536Z 2806/2906 VRB03KT P6SM SCT050
      TEMPO 2810/2814 5SM BR
     FM281400 35006KT P6SM SCT030
     FM281630 02006KT P6SM BKN050
     FM282300 VRB03KT P6SM SCT060=

USA.gov is the U.S. government's official web portal to all federal, state and local government web resources and services.